Time;durP1;ratioP1;P1;durP2;ratioP2;P2;SDS_P1;SDS_P2;PMS_P1;PMS_P2;Temp;Humidity;BMP_temperature;BMP_pressure;BME280_temperature;BME280_humidity;BME280_pressure;Samples;Min_cycle;Max_cycle;Signal;HPM_P1;HPM_P2
2023/01/28 00:00:53;;;;;;;18.33;6.45;;;;;;;3.23;86.05;102550.44;5051280;28;20174;-46
2023/01/28 00:03:20;;;;;;;14.55;6.20;;;;;;;3.25;85.77;102543.63;5051137;28;20049;-42
2023/01/28 00:05:47;;;;;;;10.30;5.28;;;;;;;3.25;86.03;102548.25;5053333;28;20041;-42
2023/01/28 00:08:13;;;;;;;12.40;5.97;;;;;;;3.26;85.96;102555.38;5060729;28;20403;-42
2023/01/28 00:10:44;;;;;;;15.20;6.03;;;;;;;3.24;85.90;102552.91;5051061;28;20045;-43
2023/01/28 00:13:13;;;;;;;10.55;5.43;;;;;;;3.27;86.09;102540.63;5050733;28;20146;-42
2023/01/28 00:15:40;;;;;;;12.32;5.88;;;;;;;3.27;85.91;102532.41;5050476;28;20049;-45
2023/01/28 00:18:07;;;;;;;21.35;6.07;;;;;;;3.27;85.97;102535.16;5051223;28;20041;-42
2023/01/28 00:20:34;;;;;;;10.02;4.72;;;;;;;3.26;86.10;102528.00;5051391;28;20076;-45
2023/01/28 00:23:01;;;;;;;11.65;5.00;;;;;;;3.23;86.13;102526.59;5032986;28;20056;-42
2023/01/28 00:25:28;;;;;;;21.73;5.53;;;;;;;3.22;86.09;102524.13;5050128;28;20055;-43
2023/01/28 00:27:55;;;;;;;15.68;4.80;;;;;;;3.20;86.40;102529.03;5050233;28;20469;-42
2023/01/28 00:30:22;;;;;;;8.60;4.72;;;;;;;3.18;86.17;102520.25;5050914;28;20396;-42
2023/01/28 00:32:49;;;;;;;8.27;3.83;;;;;;;3.18;85.96;102525.72;5050472;28;20045;-42
2023/01/28 00:35:15;;;;;;;16.48;4.57;;;;;;;3.15;86.31;102526.22;5050706;28;20057;-43
2023/01/28 00:37:45;;;;;;;11.88;4.63;;;;;;;3.15;86.43;102537.19;5052794;28;20076;-42
2023/01/28 00:40:12;;;;;;;12.82;4.38;;;;;;;3.12;86.48;102543.16;5050388;28;20514;-44
2023/01/28 00:42:38;;;;;;;12.80;4.05;;;;;;;3.14;86.41;102546.44;5050796;28;20049;-43
2023/01/28 00:45:05;;;;;;;11.27;3.60;;;;;;;3.15;86.06;102545.38;5049956;28;20126;-43
2023/01/28 00:47:32;;;;;;;11.50;4.43;;;;;;;3.18;86.38;102531.19;5050283;28;20491;-42
2023/01/28 00:49:59;;;;;;;9.07;3.63;;;;;;;3.18;86.06;102536.69;5050445;28;20059;-42
2023/01/28 00:52:26;;;;;;;15.07;4.20;;;;;;;3.17;86.43;102532.28;5050554;28;20036;-43
2023/01/28 00:54:53;;;;;;;18.73;4.30;;;;;;;3.16;86.23;102519.66;5032741;28;20479;-42
2023/01/28 00:57:19;;;;;;;17.00;3.83;;;;;;;3.14;86.20;102513.63;5050482;28;20087;-42
2023/01/28 00:59:46;;;;;;;10.38;3.58;;;;;;;3.12;85.93;102508.41;5050345;28;20036;-42
2023/01/28 01:02:13;;;;;;;11.50;3.55;;;;;;;3.11;86.14;102500.44;5051243;28;20397;-42
2023/01/28 01:04:40;;;;;;;8.90;3.17;;;;;;;3.10;85.96;102496.06;5049565;28;20502;-42
2023/01/28 01:07:06;;;;;;;10.75;3.78;;;;;;;3.10;85.99;102501.53;5052054;28;20458;-43
2023/01/28 01:09:33;;;;;;;10.63;3.42;;;;;;;3.10;86.21;102505.06;5032635;28;20049;-42
2023/01/28 01:12:00;;;;;;;13.95;3.38;;;;;;;3.11;86.17;102503.16;5049619;28;20045;-43
2023/01/28 01:14:27;;;;;;;8.27;2.38;;;;;;;3.15;86.55;102493.38;5050293;28;20045;-43
2023/01/28 01:16:53;;;;;;;13.00;3.03;;;;;;;3.18;86.33;102493.69;5050167;28;20041;-42
2023/01/28 01:19:20;;;;;;;10.43;4.10;;;;;;;3.23;86.26;102495.69;5050024;28;20049;-42
2023/01/28 01:21:49;;;;;;;12.32;2.53;;;;;;;3.27;86.58;102491.34;5048989;28;20047;-42
2023/01/28 01:24:16;;;;;;;9.57;3.35;;;;;;;3.28;86.48;102485.63;5051510;28;20501;-42
2023/01/28 01:26:43;;;;;;;10.32;2.88;;;;;;;3.31;86.56;102481.56;5060067;28;20372;-42
2023/01/28 01:29:10;;;;;;;7.43;2.30;;;;;;;3.32;86.49;102477.72;5050069;28;20118;-43
2023/01/28 01:31:37;;;;;;;11.40;2.78;;;;;;;3.34;86.45;102484.59;5049854;28;20474;-43
2023/01/28 01:34:04;;;;;;;10.65;2.63;;;;;;;3.37;86.29;102472.31;5031204;28;20041;-50
2023/01/28 01:36:30;;;;;;;14.40;2.53;;;;;;;3.37;86.39;102466.84;5049301;28;20045;-43
2023/01/28 01:38:57;;;;;;;6.40;2.40;;;;;;;3.38;86.57;102472.06;5051709;28;20051;-43
2023/01/28 01:41:28;;;;;;;11.68;3.00;;;;;;;3.38;86.44;102474.81;5050322;28;20438;-46
2023/01/28 01:43:57;;;;;;;12.10;3.08;;;;;;;3.40;86.42;102474.53;5050141;28;20482;-42
2023/01/28 01:46:36;;;;;;;18.52;2.95;;;;;;;3.42;86.54;102477.84;5049252;28;20041;-42
2023/01/28 01:49:22;;;;;;;8.57;2.20;;;;;;;3.47;86.79;102477.91;5037630;28;20072;-42
2023/01/28 01:51:54;;;;;;;9.23;2.97;;;;;;;3.51;86.33;102481.81;5049303;28;20087;-46
2023/01/28 01:54:25;;;;;;;9.27;2.35;;;;;;;3.53;86.37;102476.88;5049522;28;20565;-42
2023/01/28 01:56:52;;;;;;;10.93;2.33;;;;;;;3.55;86.61;102471.97;5048578;28;20073;-42
2023/01/28 01:59:27;;;;;;;10.88;3.53;;;;;;;3.56;86.38;102479.94;5049398;28;20040;-42
2023/01/28 02:01:54;;;;;;;14.50;2.33;;;;;;;3.58;86.72;102476.94;5049401;28;20044;-42
2023/01/28 02:04:34;;;;;;;5.28;1.98;;;;;;;3.60;86.44;102472.06;5048778;28;20063;-43
2023/01/28 02:07:01;;;;;;;7.10;2.70;;;;;;;3.60;86.76;102481.06;5050392;28;20057;-42
2023/01/28 02:09:31;;;;;;;8.45;2.10;;;;;;;3.60;86.73;102486.56;5054514;28;20052;-42
2023/01/28 02:12:07;;;;;;;10.65;3.80;;;;;;;3.58;86.54;102493.38;5049062;28;20037;-43
2023/01/28 02:14:41;;;;;;;7.03;2.00;;;;;;;3.56;86.89;102498.28;5048930;28;20045;-43
2023/01/28 02:17:07;;;;;;;11.50;2.58;;;;;;;3.57;87.02;102503.50;5049791;28;20063;-42
2023/01/28 02:19:52;;;;;;;8.70;2.25;;;;;;;3.59;87.28;102497.78;5049669;28;20049;-42
2023/01/28 02:22:46;;;;;;;8.35;1.80;;;;;;;3.62;86.79;102500.84;5048323;28;20052;-43
2023/01/28 02:25:50;;;;;;;10.73;1.83;;;;;;;3.66;86.95;102501.13;5049475;28;20052;-42
2023/01/28 02:28:32;;;;;;;9.63;3.17;;;;;;;3.69;87.47;102511.59;5021290;28;20494;-42
2023/01/28 02:31:37;;;;;;;8.55;2.30;;;;;;;3.72;87.56;102511.06;5049232;28;20087;-42
2023/01/28 02:34:32;;;;;;;10.95;2.03;;;;;;;3.75;87.26;102521.53;5049246;28;20055;-42
2023/01/28 02:37:06;;;;;;;9.02;2.15;;;;;;;3.76;87.98;102522.34;5049742;28;20045;-42
2023/01/28 02:39:39;;;;;;;10.52;2.97;;;;;;;3.76;87.74;102534.13;5048701;28;20037;-42
2023/01/28 02:42:16;;;;;;;11.32;1.85;;;;;;;3.76;88.00;102534.13;5031305;28;20399;-42
2023/01/28 02:44:43;;;;;;;10.05;2.15;;;;;;;3.76;88.22;102528.63;5048943;28;20049;-42
2023/01/28 02:50:00;;;;;;;8.77;2.00;;;;;;;3.76;88.71;102512.19;5052353;28;20052;-42
2023/01/28 02:55:38;;;;;;;4.30;1.95;;;;;;;3.74;89.24;102489.72;5053026;28;20044;-43
2023/01/28 02:58:26;;;;;;;10.40;2.20;;;;;;;3.75;88.99;102504.25;5052297;28;20060;-43
2023/01/28 03:01:37;;;;;;;14.50;2.10;;;;;;;3.74;89.79;102487.00;5141553;22;21681;-44
2023/01/28 03:04:34;;;;;;;8.63;2.72;;;;;;;3.72;89.80;102480.94;5009679;28;20395;-43
2023/01/28 03:07:05;;;;;;;8.68;2.40;;;;;;;3.73;89.92;102488.09;5012669;28;20395;-43
2023/01/28 03:09:33;;;;;;;13.18;2.63;;;;;;;3.73;90.16;102484.53;5012804;28;20045;-51
2023/01/28 03:38:22;;;;;;;7.65;3.28;;;;;;;3.63;92.09;102497.00;5011553;28;20080;-43
2023/01/28 03:40:56;;;;;;;9.15;2.95;;;;;;;3.64;92.10;102497.84;5011665;28;20503;-44
2023/01/28 03:43:23;;;;;;;9.10;3.13;;;;;;;3.66;92.54;102501.13;5012002;28;20439;-42
2023/01/28 03:45:50;;;;;;;6.60;2.45;;;;;;;3.66;92.16;102484.72;5011741;28;20060;-43
2023/01/28 03:48:24;;;;;;;15.75;2.42;;;;;;;3.67;92.49;102476.25;5012524;28;20050;-43
2023/01/28 03:50:52;;;;;;;12.68;3.40;;;;;;;3.68;92.85;102466.09;4993723;28;20046;-44
2023/01/28 03:53:19;;;;;;;11.60;3.45;;;;;;;3.68;92.84;102471.56;5010531;28;20042;-43
2023/01/28 03:55:48;;;;;;;11.70;3.53;;;;;;;3.68;92.77;102479.78;5011702;28;20057;-42
2023/01/28 03:58:16;;;;;;;9.32;2.40;;;;;;;3.67;93.06;102475.41;5010659;28;20491;-43
2023/01/28 04:00:42;;;;;;;17.35;2.95;;;;;;;3.67;93.32;102480.91;5012181;28;20045;-42
2023/01/28 04:03:16;;;;;;;13.90;2.60;;;;;;;3.65;93.60;102478.41;5027760;28;20531;-42
2023/01/28 04:06:00;;;;;;;10.48;2.67;;;;;;;3.65;93.50;102483.88;5030944;28;20406;-43
2023/01/28 04:08:27;;;;;;;6.78;2.28;;;;;;;3.65;94.06;102478.41;5039960;28;20037;-44
2023/01/28 04:10:55;;;;;;;11.18;3.65;;;;;;;3.66;93.78;102485.53;5031375;28;20499;-42
2023/01/28 04:13:21;;;;;;;8.68;2.65;;;;;;;3.69;94.27;102481.47;5031051;28;20060;-42
2023/01/28 04:15:48;;;;;;;7.10;2.78;;;;;;;3.71;94.21;102481.22;5031292;28;20115;-42
2023/01/28 04:18:15;;;;;;;15.77;2.88;;;;;;;3.73;94.49;102476.31;5030826;28;20124;-42
2023/01/28 04:20:42;;;;;;;7.97;2.70;;;;;;;3.72;94.61;102470.00;5030773;28;20095;-43
2023/01/28 04:23:08;;;;;;;5.05;2.85;;;;;;;3.73;94.46;102473.56;5031031;28;20487;-42
2023/01/28 04:25:35;;;;;;;8.18;3.08;;;;;;;3.73;94.45;102457.97;5030322;28;20496;-44
2023/01/28 04:28:02;;;;;;;8.07;2.40;;;;;;;3.74;95.04;102451.38;5031488;28;20048;-44
2023/01/28 04:30:28;;;;;;;6.78;2.63;;;;;;;3.74;95.02;102465.06;5030772;28;20521;-42
2023/01/28 04:32:55;;;;;;;10.77;4.68;;;;;;;3.75;95.03;102471.38;5012390;28;20046;-42
2023/01/28 04:35:22;;;;;;;8.32;3.55;;;;;;;3.77;95.24;102466.47;5030575;28;20442;-44
2023/01/28 04:37:48;;;;;;;6.88;2.53;;;;;;;3.80;95.09;102464.06;5032834;28;20042;-42
2023/01/28 04:40:15;;;;;;;6.13;2.08;;;;;;;3.84;95.50;102469.84;5030487;28;20049;-44
2023/01/28 04:42:42;;;;;;;8.10;2.25;;;;;;;3.86;95.54;102471.25;5031096;28;20091;-42
2023/01/28 04:45:09;;;;;;;8.95;2.47;;;;;;;3.88;95.46;102468.25;5030048;28;20438;-42
2023/01/28 04:47:36;;;;;;;6.15;2.80;;;;;;;3.90;95.35;102474.28;5031342;28;20050;-42
2023/01/28 04:50:02;;;;;;;16.08;2.72;;;;;;;3.89;95.56;102478.94;5029682;28;20041;-43
2023/01/28 04:52:29;;;;;;;7.80;2.13;;;;;;;3.90;95.87;102486.06;5031052;28;20092;-42
2023/01/28 04:54:56;;;;;;;10.18;3.45;;;;;;;3.92;96.03;102478.41;5030635;28;20041;-42
2023/01/28 04:57:22;;;;;;;11.00;3.25;;;;;;;3.94;96.09;102483.66;5030455;28;20053;-44
2023/01/28 04:59:49;;;;;;;10.82;2.83;;;;;;;3.94;95.99;102481.75;5029616;28;20052;-45
2023/01/28 05:02:16;;;;;;;12.55;3.92;;;;;;;3.95;96.12;102488.84;5030985;28;21110;-43
2023/01/28 05:04:44;;;;;;;7.65;3.47;;;;;;;3.96;96.36;102489.69;5029914;28;20049;-43
2023/01/28 05:07:12;;;;;;;9.05;3.47;;;;;;;3.96;96.37;102474.09;5033923;28;20045;-45
2023/01/28 05:09:39;;;;;;;8.20;4.15;;;;;;;3.96;96.55;102490.53;5029816;28;20045;-43
2023/01/28 05:12:05;;;;;;;11.43;3.45;;;;;;;3.97;96.76;102497.63;5012013;28;20490;-43
2023/01/28 05:14:32;;;;;;;12.75;3.80;;;;;;;3.99;96.59;102500.13;5012685;28;20164;-42
2023/01/28 05:16:59;;;;;;;12.60;2.75;;;;;;;4.01;96.99;102492.47;5029389;28;20550;-43
2023/01/28 05:19:25;;;;;;;10.93;2.55;;;;;;;4.02;97.00;102511.41;5029639;28;20407;-42
2023/01/28 05:21:52;;;;;;;5.25;2.40;;;;;;;4.03;96.67;102507.56;5030458;28;20465;-42
2023/01/28 05:24:20;;;;;;;10.20;2.58;;;;;;;4.05;96.81;102504.59;5029794;28;20168;-42
2023/01/28 05:26:47;;;;;;;10.02;2.97;;;;;;;4.05;96.96;102505.41;5029744;28;20049;-43
2023/01/28 05:29:13;;;;;;;10.63;3.30;;;;;;;4.06;97.42;102504.31;5029948;28;20049;-42
2023/01/28 05:31:40;;;;;;;6.85;3.38;;;;;;;4.07;97.58;102514.22;5029843;28;20092;-42
2023/01/28 05:34:07;;;;;;;6.70;3.40;;;;;;;4.07;97.54;102508.72;5029776;28;20041;-42
2023/01/28 05:36:34;;;;;;;10.50;4.10;;;;;;;4.09;97.67;102513.94;5029608;28;20487;-43
2023/01/28 05:39:00;;;;;;;10.05;3.30;;;;;;;4.08;97.75;102507.63;5031801;28;20057;-44
2023/01/28 05:41:27;;;;;;;9.23;2.90;;;;;;;4.10;97.49;102510.13;5030294;28;20128;-43
2023/01/28 05:43:53;;;;;;;11.70;3.58;;;;;;;4.10;97.96;102516.41;5028835;28;20045;-43
2023/01/28 05:46:20;;;;;;;9.90;3.55;;;;;;;4.10;97.94;102519.16;5030061;28;20045;-43
2023/01/28 05:48:47;;;;;;;13.65;3.95;;;;;;;4.10;97.64;102512.88;5029240;28;20046;-42
2023/01/28 05:51:13;;;;;;;11.00;3.70;;;;;;;4.09;98.07;102516.69;5012059;28;20045;-43
2023/01/28 05:53:40;;;;;;;9.02;3.58;;;;;;;4.07;98.24;102508.72;5029357;28;20442;-42
2023/01/28 05:56:07;;;;;;;11.63;3.42;;;;;;;4.05;98.40;102493.63;5029707;28;20037;-42
2023/01/28 05:58:34;;;;;;;16.20;4.47;;;;;;;4.02;98.39;102494.97;5029234;28;20442;-42
2023/01/28 06:01:01;;;;;;;18.17;4.57;;;;;;;4.00;98.75;102488.91;5029522;28;20048;-42
2023/01/28 06:03:27;;;;;;;14.25;4.32;;;;;;;3.98;98.48;102487.50;5029066;28;20053;-43
2023/01/28 06:05:54;;;;;;;15.10;5.05;;;;;;;3.96;98.84;102485.03;5029583;28;20045;-43
2023/01/28 06:08:21;;;;;;;16.45;5.10;;;;;;;3.95;98.78;102483.38;5037345;28;20049;-42
2023/01/28 06:10:47;;;;;;;18.45;5.35;;;;;;;3.94;99.16;102481.75;5029733;28;20042;-42
2023/01/28 06:13:14;;;;;;;19.65;5.80;;;;;;;3.93;99.27;102498.44;5029256;28;20034;-43
2023/01/28 06:15:41;;;;;;;16.90;5.65;;;;;;;3.92;99.50;102497.59;5028859;28;20553;-43
2023/01/28 06:18:07;;;;;;;17.70;6.10;;;;;;;3.90;99.34;102497.03;5029965;28;20080;-42
2023/01/28 06:20:34;;;;;;;18.45;5.55;;;;;;;3.89;99.65;102489.06;5028797;28;20045;-42
2023/01/28 06:23:01;;;;;;;16.30;4.97;;;;;;;3.87;99.58;102486.59;5029768;28;20466;-42
2023/01/28 06:25:28;;;;;;;12.80;5.63;;;;;;;3.84;99.92;102480.81;5032710;28;20079;-42
2023/01/28 06:27:54;;;;;;;18.40;6.32;;;;;;;3.82;99.92;102486.53;5019484;28;20546;-42
2023/01/28 06:30:21;;;;;;;17.13;5.32;;;;;;;3.80;99.75;102483.22;5033550;28;20049;-43
2023/01/28 06:32:53;;;;;;;20.30;6.28;;;;;;;3.79;100.00;102483.47;5032660;28;20037;-45
2023/01/28 06:35:20;;;;;;;16.67;5.82;;;;;;;3.75;100.00;102480.44;5032857;28;20046;-42
2023/01/28 06:37:47;;;;;;;18.58;7.28;;;;;;;3.74;100.00;102465.06;5034246;28;20072;-42
2023/01/28 06:40:14;;;;;;;17.17;6.13;;;;;;;3.73;100.00;102479.03;5033037;28;20045;-42
2023/01/28 06:42:41;;;;;;;14.30;5.40;;;;;;;3.71;100.00;102479.28;5032453;28;20442;-42
2023/01/28 06:45:08;;;;;;;19.02;5.75;;;;;;;3.70;100.00;102474.91;5032398;28;20045;-42
2023/01/28 06:47:34;;;;;;;14.20;5.32;;;;;;;3.68;100.00;102471.56;5032974;28;20068;-42
2023/01/28 06:50:01;;;;;;;16.13;6.10;;;;;;;3.67;100.00;102480.91;5015525;28;20060;-42
2023/01/28 06:52:28;;;;;;;22.98;7.25;;;;;;;3.69;100.00;102482.28;5032657;28;20391;-42
2023/01/28 06:54:54;;;;;;;13.43;5.50;;;;;;;3.72;100.00;102483.69;5032213;28;20041;-43
2023/01/28 06:57:21;;;;;;;14.20;4.75;;;;;;;3.74;100.00;102476.03;5032294;28;20053;-43
2023/01/28 06:59:48;;;;;;;15.23;5.47;;;;;;;3.78;100.00;102477.19;5032914;28;20041;-42
2023/01/28 07:02:14;;;;;;;15.63;4.93;;;;;;;3.82;100.00;102470.09;5031335;28;20064;-42
2023/01/28 07:04:41;;;;;;;14.00;5.75;;;;;;;3.86;100.00;102473.97;5014420;28;20041;-42
2023/01/28 07:07:08;;;;;;;15.93;5.50;;;;;;;3.88;100.00;102471.81;5035923;28;20079;-43
2023/01/28 07:09:34;;;;;;;13.48;5.15;;;;;;;3.90;100.00;102472.38;5035786;28;20119;-43
2023/01/28 07:12:04;;;;;;;16.65;5.75;;;;;;;3.92;100.00;102466.66;5032234;28;20057;-42
2023/01/28 07:14:31;;;;;;;9.35;4.65;;;;;;;3.92;100.00;102478.41;5032238;28;20045;-42
2023/01/28 07:16:57;;;;;;;14.52;5.82;;;;;;;3.95;100.00;102471.59;5032582;28;20041;-42
2023/01/28 07:19:24;;;;;;;12.48;5.82;;;;;;;3.97;100.00;102472.19;5031437;28;20054;-44
2023/01/28 07:21:51;;;;;;;12.90;4.95;;;;;;;3.99;100.00;102470.00;5032035;28;20046;-43
2023/01/28 07:24:17;;;;;;;10.18;5.57;;;;;;;4.02;100.00;102467.56;5030756;28;20495;-42
2023/01/28 07:26:46;;;;;;;13.95;5.75;;;;;;;4.05;100.00;102468.97;5032089;28;20041;-43
2023/01/28 07:29:13;;;;;;;11.82;5.35;;;;;;;4.06;100.00;102479.66;5032357;28;20494;-42
2023/01/28 07:31:39;;;;;;;12.45;5.53;;;;;;;4.07;100.00;102489.53;5031515;28;20056;-43
2023/01/28 07:34:08;;;;;;;16.98;5.45;;;;;;;4.08;100.00;102485.69;5031068;28;20041;-47
2023/01/28 07:36:34;;;;;;;11.15;5.32;;;;;;;4.09;100.00;102479.13;5032836;28;20384;-43
2023/01/28 07:39:01;;;;;;;12.30;5.45;;;;;;;4.09;100.00;102479.13;5033315;28;20128;-42
2023/01/28 07:41:28;;;;;;;12.07;5.40;;;;;;;4.10;100.00;102472.56;5032411;28;20064;-42
2023/01/28 07:43:55;;;;;;;10.63;5.68;;;;;;;4.10;100.00;102477.22;5031039;28;20041;-43
2023/01/28 07:46:21;;;;;;;16.33;5.35;;;;;;;4.10;100.00;102469.81;5031996;28;20049;-43
2023/01/28 07:48:48;;;;;;;18.85;5.47;;;;;;;4.08;100.00;102466.50;5031598;28;20053;-42
2023/01/28 07:51:15;;;;;;;13.70;5.43;;;;;;;4.05;100.00;102467.03;5031974;28;20522;-43
2023/01/28 07:53:41;;;;;;;14.40;5.22;;;;;;;4.04;100.00;102467.31;5031484;28;20076;-43
2023/01/28 07:56:08;;;;;;;11.95;5.18;;;;;;;4.02;100.00;102477.69;5013347;28;20038;-43
2023/01/28 07:58:35;;;;;;;9.98;5.43;;;;;;;4.02;100.00;102481.28;5031685;28;20029;-43
2023/01/28 08:01:02;;;;;;;12.10;5.10;;;;;;;4.03;100.00;102485.66;5031597;28;20041;-43
2023/01/28 08:03:29;;;;;;;15.25;4.97;;;;;;;4.04;100.00;102470.88;5030870;28;20045;-43
2023/01/28 08:05:57;;;;;;;10.27;5.60;;;;;;;4.08;100.00;102488.44;5013621;28;20376;-43
2023/01/28 08:08:26;;;;;;;11.65;4.78;;;;;;;4.09;100.00;102495.59;5039505;28;20466;-43
2023/01/28 08:10:53;;;;;;;7.88;4.68;;;;;;;4.13;100.00;102496.72;5031406;28;20041;-42
2023/01/28 08:13:20;;;;;;;9.60;4.57;;;;;;;4.18;100.00;102504.97;5031063;28;20048;-42
2023/01/28 08:15:46;;;;;;;11.15;4.68;;;;;;;4.22;100.00;102503.38;5032085;28;20392;-42
2023/01/28 08:18:15;;;;;;;12.50;4.50;;;;;;;4.25;100.00;102502.88;5031541;28;20069;-42
2023/01/28 08:20:43;;;;;;;11.52;4.85;;;;;;;4.29;100.00;102505.91;5031904;28;20041;-43
2023/01/28 08:23:15;;;;;;;12.70;5.38;;;;;;;4.31;100.00;102509.22;5031499;28;20041;-42
2023/01/28 08:25:42;;;;;;;8.45;5.07;;;;;;;4.32;100.00;102506.22;5012782;28;20049;-42
2023/01/28 08:28:09;;;;;;;12.27;5.30;;;;;;;4.36;100.00;102511.19;5031050;28;20063;-42
2023/01/28 08:30:37;;;;;;;16.75;4.80;;;;;;;4.39;100.00;102510.66;5030878;28;20404;-44
2023/01/28 08:33:07;;;;;;;9.55;4.68;;;;;;;4.41;100.00;102514.78;5031052;28;20076;-50
2023/01/28 08:35:34;;;;;;;12.07;4.80;;;;;;;4.46;100.00;102516.75;5030301;28;20046;-42
2023/01/28 08:38:03;;;;;;;13.15;5.50;;;;;;;4.48;100.00;102520.06;5033682;28;20144;-42
2023/01/28 08:40:29;;;;;;;9.68;4.30;;;;;;;4.51;100.00;102514.88;5030001;28;20045;-45
2023/01/28 08:42:57;;;;;;;10.98;4.22;;;;;;;4.53;100.00;102523.66;5031811;28;20052;-42
2023/01/28 08:45:25;;;;;;;7.43;4.45;;;;;;;4.55;100.00;102513.28;5029638;28;20099;-42
2023/01/28 08:47:56;;;;;;;8.30;4.90;;;;;;;4.57;100.00;102513.00;5013186;28;20045;-43
2023/01/28 08:50:25;;;;;;;11.38;4.43;;;;;;;4.56;100.00;102512.16;5029539;28;20049;-42
2023/01/28 08:52:56;;;;;;;15.35;5.32;;;;;;;4.57;100.00;102507.53;5029992;28;20052;-42
2023/01/28 08:55:24;;;;;;;11.02;5.38;;;;;;;4.56;100.00;102511.34;5013666;28;20495;-43
2023/01/28 08:57:51;;;;;;;11.02;5.40;;;;;;;4.54;100.00;102510.78;5032296;28;20049;-44
2023/01/28 09:00:18;;;;;;;9.82;4.03;;;;;;;4.53;100.00;102509.13;5030131;28;20476;-43
2023/01/28 09:02:45;;;;;;;7.55;4.22;;;;;;;4.53;100.00;102514.59;5030688;28;20052;-42
2023/01/28 09:05:12;;;;;;;10.38;4.68;;;;;;;4.53;100.00;102514.59;5028542;28;20046;-43
2023/01/28 09:07:39;;;;;;;8.40;3.85;;;;;;;4.57;100.00;102515.75;5038148;28;20037;-42
2023/01/28 09:10:06;;;;;;;7.82;3.38;;;;;;;4.59;100.00;102510.81;5017841;28;20069;-43
2023/01/28 09:12:33;;;;;;;5.53;3.63;;;;;;;4.66;100.00;102519.69;5030262;28;20099;-44
2023/01/28 09:14:59;;;;;;;5.43;3.20;;;;;;;4.71;100.00;102508.75;5030686;28;20049;-44
2023/01/28 09:17:26;;;;;;;4.20;3.22;;;;;;;4.80;100.00;102523.59;5012903;28;20369;-43
2023/01/28 09:19:53;;;;;;;7.28;3.13;;;;;;;4.86;100.00;102517.91;5029866;28;20041;-43
2023/01/28 09:22:20;;;;;;;4.10;2.85;;;;;;;4.91;100.00;102517.94;5029952;28;20045;-43
2023/01/28 09:24:46;;;;;;;5.78;3.10;;;;;;;4.97;100.00;102523.44;5029583;28;20503;-42
2023/01/28 09:27:13;;;;;;;6.82;3.10;;;;;;;5.00;100.00;102517.44;5029968;28;20065;-45
2023/01/28 09:29:40;;;;;;;4.82;3.55;;;;;;;5.02;100.00;102516.09;5030589;28;20423;-43
2023/01/28 09:32:06;;;;;;;5.55;3.28;;;;;;;5.02;100.00;102516.09;5029718;28;20056;-44
2023/01/28 09:34:33;;;;;;;4.57;2.80;;;;;;;5.03;100.00;102520.47;5030204;28;20506;-49
2023/01/28 09:37:00;;;;;;;6.80;3.47;;;;;;;5.04;100.00;102513.88;5030746;28;20056;-44
2023/01/28 09:39:30;;;;;;;8.07;4.10;;;;;;;5.09;100.00;102529.56;5029874;28;20049;-42
2023/01/28 09:42:22;;;;;;;7.05;3.47;;;;;;;5.14;100.00;102518.59;5029679;28;20506;-42
2023/01/28 09:45:15;;;;;;;6.10;3.47;;;;;;;5.20;100.00;102534.03;5028937;28;20095;-41
2023/01/28 09:47:52;;;;;;;5.43;3.42;;;;;;;5.24;100.00;102530.47;5019113;28;20055;-44
2023/01/28 09:50:24;;;;;;;8.15;3.33;;;;;;;5.27;100.00;102537.38;5011605;28;20041;-47
2023/01/28 09:52:56;;;;;;;6.38;3.83;;;;;;;5.28;100.00;102534.34;5029621;28;20044;-41
2023/01/28 09:55:37;;;;;;;4.80;3.50;;;;;;;5.31;100.00;102539.31;5011491;28;20399;-40
2023/01/28 09:58:13;;;;;;;6.38;3.67;;;;;;;5.34;100.00;102546.19;5029454;28;20049;-44
2023/01/28 10:00:52;;;;;;;7.72;4.05;;;;;;;5.35;100.00;102539.59;5029650;28;20041;-40
2023/01/28 10:03:29;;;;;;;10.00;4.20;;;;;;;5.37;100.00;102540.19;5028850;28;20128;-45
2023/01/28 10:06:20;;;;;;;9.48;4.25;;;;;;;5.40;100.00;102545.13;5029935;28;20073;-40
2023/01/28 10:09:05;;;;;;;8.70;4.65;;;;;;;5.44;100.00;102552.56;5034984;28;20045;-41
2023/01/28 10:11:32;;;;;;;8.43;5.07;;;;;;;5.49;100.00;102558.09;5028538;28;20537;-41
2023/01/28 10:13:58;;;;;;;8.25;4.97;;;;;;;5.52;100.00;102562.22;5029520;28;20041;-40
2023/01/28 10:16:33;;;;;;;7.22;5.03;;;;;;;5.53;100.00;102561.94;5029511;28;20042;-41
2023/01/28 10:19:07;;;;;;;5.93;4.25;;;;;;;5.56;100.00;102559.78;5029248;28;20053;-40
2023/01/28 10:21:40;;;;;;;4.43;3.95;;;;;;;5.58;100.00;102563.91;5029233;28;20033;-41
2023/01/28 10:24:20;;;;;;;6.95;4.22;;;;;;;5.61;100.00;102570.78;5030170;28;20491;-40
2023/01/28 10:26:48;;;;;;;6.28;4.15;;;;;;;5.64;100.00;102567.50;5030114;28;20037;-42
2023/01/28 10:29:19;;;;;;;8.27;4.40;;;;;;;5.67;100.00;102567.78;5028760;28;20083;-41
2023/01/28 10:32:03;;;;;;;7.45;3.75;;;;;;;5.67;100.00;102561.44;5028213;28;20144;-42
2023/01/28 10:34:29;;;;;;;5.22;3.58;;;;;;;5.69;100.00;102564.78;5029569;28;20483;-41
2023/01/28 10:36:57;;;;;;;5.32;4.25;;;;;;;5.72;100.00;102576.03;5030943;28;20045;-41
2023/01/28 10:39:25;;;;;;;5.88;3.92;;;;;;;5.75;100.00;102585.66;5028635;28;20038;-42
2023/01/28 10:41:52;;;;;;;5.72;3.65;;;;;;;5.77;100.00;102586.25;5029556;28;20045;-41
2023/01/28 10:44:39;;;;;;;3.95;2.45;;;;;;;5.85;100.00;102580.28;5030095;28;20033;-41
2023/01/28 10:47:13;;;;;;;3.45;2.38;;;;;;;5.90;100.00;102578.38;5028989;28;20541;-48
2023/01/28 10:49:51;;;;;;;3.58;2.50;;;;;;;5.93;100.00;102569.56;5030635;28;20048;-40
2023/01/28 10:52:17;;;;;;;4.57;2.85;;;;;;;5.94;100.00;102565.72;5028703;28;20044;-41
2023/01/28 10:54:44;;;;;;;4.78;2.97;;;;;;;5.95;100.00;102569.31;5028925;28;20052;-41
2023/01/28 10:57:17;;;;;;;4.28;2.70;;;;;;;5.95;100.00;102570.13;5029129;28;20132;-41
2023/01/28 10:59:44;;;;;;;5.57;2.65;;;;;;;6.00;100.00;102572.06;5028795;28;20120;-41
2023/01/28 11:02:23;;;;;;;3.25;2.45;;;;;;;6.02;100.00;102559.69;5027802;28;20046;-41
2023/01/28 11:05:01;;;;;;;2.63;2.33;;;;;;;6.06;100.00;102555.31;5029228;28;20128;-41
2023/01/28 11:07:28;;;;;;;3.28;2.65;;;;;;;6.11;100.00;102552.59;5034777;28;20501;-40
2023/01/28 11:09:55;;;;;;;4.07;2.33;;;;;;;6.17;100.00;102550.66;5032177;28;20063;-41
2023/01/28 11:12:27;;;;;;;4.50;2.75;;;;;;;6.19;100.00;102536.66;5013214;28;20059;-41
2023/01/28 11:14:58;;;;;;;3.95;2.47;;;;;;;6.24;100.00;102533.91;5015049;28;20046;-41
2023/01/28 11:17:29;;;;;;;2.67;2.10;;;;;;;6.31;100.00;102524.28;5032137;28;20073;-40
2023/01/28 11:20:00;;;;;;;2.25;1.92;;;;;;;6.42;100.00;102519.63;5032005;28;20054;-41
2023/01/28 11:22:38;;;;;;;5.00;3.22;;;;;;;6.50;100.00;102516.31;5031887;28;20163;-43
2023/01/28 11:25:23;;;;;;;3.60;2.08;;;;;;;6.58;100.00;102522.09;5032158;28;20056;-41
2023/01/28 11:27:52;;;;;;;2.47;1.77;;;;;;;6.62;100.00;102512.19;5032853;28;20056;-40
2023/01/28 11:30:23;;;;;;;3.47;3.17;;;;;;;6.65;100.00;102514.38;5032137;28;20053;-39
2023/01/28 11:32:56;;;;;;;2.30;1.95;;;;;;;6.66;100.00;102507.78;5031456;28;20517;-41
2023/01/28 11:35:29;;;;;;;4.05;2.05;;;;;;;6.67;100.00;102514.94;5031649;28;20099;-41
2023/01/28 11:37:57;;;;;;;1.67;1.40;;;;;;;6.69;100.00;102512.75;5033523;28;20042;-40
2023/01/28 11:40:24;;;;;;;4.13;3.00;;;;;;;6.75;100.00;102522.63;5031258;28;20037;-42
2023/01/28 11:42:55;;;;;;;3.35;1.90;;;;;;;6.79;100.00;102522.09;5031701;28;20050;-40
2023/01/28 11:45:54;;;;;;;2.65;2.42;;;;;;;6.84;100.00;102522.91;5032106;28;20107;-40
2023/01/28 11:48:53;;;;;;;4.90;1.92;;;;;;;6.88;100.00;102528.69;5031383;28;20041;-41
2023/01/28 11:51:34;;;;;;;3.35;2.28;;;;;;;6.90;100.00;102532.00;5028900;28;20063;-40
2023/01/28 11:54:04;;;;;;;3.70;2.00;;;;;;;6.88;100.00;102523.19;5032427;28;20043;-40
2023/01/28 11:56:50;;;;;;;4.07;2.28;;;;;;;6.84;100.00;102524.81;5031899;28;20050;-40
2023/01/28 11:59:28;;;;;;;4.88;4.15;;;;;;;6.79;100.00;102525.66;5014644;28;20050;-40
2023/01/28 12:02:20;;;;;;;4.05;3.65;;;;;;;6.77;100.00;102518.78;5018222;28;20410;-40
2023/01/28 12:05:05;;;;;;;4.00;3.05;;;;;;;6.75;100.00;102510.81;5027512;28;20479;-40
2023/01/28 12:07:47;;;;;;;3.90;3.00;;;;;;;6.73;100.00;102510.25;5037879;28;20040;-43
2023/01/28 12:10:15;;;;;;;6.28;3.25;;;;;;;6.70;100.00;102514.38;5019976;28;20480;-40